Time;durP1;ratioP1;P1;durP2;ratioP2;P2;SDS_P1;SDS_P2;PMS_P1;PMS_P2;Temp;Humidity;BMP_temperature;BMP_pressure;BME280_temperature;BME280_humidity;BME280_pressure;Samples;Min_cycle;Max_cycle;Signal;HPM_P1;HPM_P2
2023/08/25 00:01:01;;;;;;;12.38;7.05;;;20.90;99.90;;;;;;4983312;28;20030;-62
2023/08/25 00:03:27;;;;;;;14.73;6.78;;;21.00;99.90;;;;;;4990851;28;20114;-62
2023/08/25 00:05:53;;;;;;;12.52;6.22;;;21.10;99.90;;;;;;4988800;28;20479;-62
2023/08/25 00:08:20;;;;;;;10.75;5.57;;;21.10;99.90;;;;;;4990996;28;20031;-62
2023/08/25 00:10:46;;;;;;;11.13;6.88;;;21.10;99.90;;;;;;4989968;28;20062;-62
2023/08/25 00:13:13;;;;;;;10.52;5.78;;;21.10;99.90;;;;;;4989453;28;20076;-62
2023/08/25 00:15:41;;;;;;;12.13;5.70;;;21.10;99.90;;;;;;4989229;28;20054;-62
2023/08/25 00:18:07;;;;;;;9.27;6.28;;;21.10;99.90;;;;;;4990692;28;20117;-62
2023/08/25 00:20:33;;;;;;;13.50;5.50;;;21.00;99.90;;;;;;4982838;28;20038;-62
2023/08/25 00:22:59;;;;;;;8.85;5.45;;;21.00;99.90;;;;;;4989333;28;20423;-62
2023/08/25 00:25:24;;;;;;;10.07;6.35;;;21.00;99.90;;;;;;4989517;28;20062;-62
2023/08/25 00:27:50;;;;;;;9.32;4.88;;;21.00;99.90;;;;;;4990297;28;20573;-62
2023/08/25 00:30:16;;;;;;;8.75;5.15;;;21.00;99.90;;;;;;4989526;28;20026;-62
2023/08/25 00:32:41;;;;;;;6.70;4.75;;;21.10;99.90;;;;;;4990232;28;20068;-63
2023/08/25 00:35:08;;;;;;;8.80;4.85;;;21.20;99.90;;;;;;4990866;28;20041;-62
2023/08/25 00:37:33;;;;;;;8.38;5.25;;;21.20;99.90;;;;;;4992641;28;20033;-62
2023/08/25 00:39:59;;;;;;;10.55;5.43;;;21.30;99.90;;;;;;4985728;28;20058;-62
2023/08/25 00:42:25;;;;;;;7.53;5.15;;;21.20;99.90;;;;;;4992317;28;20034;-62
2023/08/25 00:44:51;;;;;;;8.02;5.30;;;21.20;99.90;;;;;;4986013;28;20073;-62
2023/08/25 00:47:18;;;;;;;8.10;4.85;;;21.10;99.90;;;;;;4993622;28;20040;-62
2023/08/25 00:49:45;;;;;;;8.75;4.65;;;21.10;99.90;;;;;;4986551;28;20045;-62
2023/08/25 00:52:11;;;;;;;8.68;5.00;;;21.10;99.90;;;;;;4992722;28;20034;-62
2023/08/25 00:54:37;;;;;;;8.82;5.50;;;21.10;99.90;;;;;;4987664;28;20030;-62
2023/08/25 00:57:04;;;;;;;9.20;4.78;;;21.10;99.90;;;;;;4991501;28;20037;-62
2023/08/25 00:59:33;;;;;;;7.32;4.60;;;21.10;99.90;;;;;;4992420;28;20043;-62
2023/08/25 01:02:00;;;;;;;6.05;4.47;;;21.10;99.90;;;;;;4992102;28;20486;-62
2023/08/25 01:04:25;;;;;;;7.15;4.53;;;21.10;99.90;;;;;;4989326;28;20089;-62
2023/08/25 01:06:51;;;;;;;14.82;5.60;;;21.10;99.90;;;;;;4994521;28;20027;-62
2023/08/25 01:09:18;;;;;;;9.60;4.82;;;21.10;99.90;;;;;;4998029;28;20494;-62
2023/08/25 01:12:03;;;;;;;8.80;4.55;;;21.10;99.90;;;;;;4998202;28;20129;-62
2023/08/25 01:14:47;;;;;;;7.57;4.25;;;21.10;99.90;;;;;;4972427;28;20092;-62
2023/08/25 01:17:48;;;;;;;8.77;4.97;;;21.20;99.90;;;;;;4991146;28;20495;-62
2023/08/25 01:20:15;;;;;;;6.68;3.95;;;21.20;99.90;;;;;;4984583;28;20435;-64
2023/08/25 01:23:08;;;;;;;7.50;4.53;;;21.10;99.90;;;;;;4991559;28;20475;-64
2023/08/25 01:25:35;;;;;;;6.72;4.45;;;21.10;99.90;;;;;;4985442;28;20039;-62
2023/08/25 01:28:04;;;;;;;9.43;4.78;;;21.10;99.90;;;;;;4993080;28;20034;-62
2023/08/25 01:30:38;;;;;;;10.68;4.47;;;21.10;99.90;;;;;;4991302;28;20034;-62
2023/08/25 01:33:04;;;;;;;11.98;4.70;;;21.10;99.90;;;;;;4991213;28;20030;-61
2023/08/25 01:35:47;;;;;;;10.00;4.50;;;21.00;99.90;;;;;;4984963;28;20137;-61
2023/08/25 01:38:24;;;;;;;7.10;4.28;;;21.00;99.90;;;;;;4991343;28;20501;-62
2023/08/25 01:40:54;;;;;;;8.00;4.22;;;21.00;99.90;;;;;;4990539;28;20034;-62
2023/08/25 01:43:22;;;;;;;13.07;4.50;;;21.00;99.90;;;;;;4983562;28;20035;-62
2023/08/25 01:45:50;;;;;;;6.65;4.75;;;20.90;99.90;;;;;;4984654;28;20026;-61
2023/08/25 01:48:18;;;;;;;10.60;5.20;;;20.90;99.90;;;;;;4975220;28;20030;-62
2023/08/25 01:50:44;;;;;;;5.82;3.40;;;20.90;99.90;;;;;;4991010;28;20041;-62
2023/08/25 01:53:10;;;;;;;13.15;4.78;;;20.90;99.90;;;;;;4990957;28;20030;-61
2023/08/25 01:55:36;;;;;;;7.38;4.82;;;20.90;99.90;;;;;;4990984;28;20045;-62
2023/08/25 01:58:05;;;;;;;11.23;4.00;;;20.90;99.90;;;;;;4988139;28;20103;-61
2023/08/25 02:00:30;;;;;;;9.10;4.35;;;20.90;99.90;;;;;;4988652;28;20041;-62
2023/08/25 02:02:58;;;;;;;7.97;5.20;;;20.80;99.90;;;;;;4989454;28;20081;-61
2023/08/25 02:05:24;;;;;;;6.78;4.30;;;20.80;99.90;;;;;;4989575;28;20146;-61
2023/08/25 02:07:50;;;;;;;8.75;4.50;;;20.80;99.90;;;;;;4992325;28;20090;-62
2023/08/25 02:10:16;;;;;;;9.23;5.18;;;20.80;99.90;;;;;;4984182;28;20035;-62
2023/08/25 02:12:42;;;;;;;9.98;4.68;;;20.80;99.90;;;;;;4992190;28;20061;-61
2023/08/25 02:15:08;;;;;;;8.73;4.93;;;20.80;99.90;;;;;;4994520;28;20057;-61
2023/08/25 02:17:34;;;;;;;7.15;3.80;;;20.80;99.90;;;;;;4990890;28;20027;-61
2023/08/25 02:20:00;;;;;;;6.18;3.67;;;20.80;99.90;;;;;;4984138;28;20047;-61
2023/08/25 02:22:26;;;;;;;6.53;4.10;;;20.80;99.90;;;;;;4990815;28;20022;-61
2023/08/25 02:24:52;;;;;;;12.50;4.55;;;20.80;99.90;;;;;;4984410;28;20394;-61
2023/08/25 02:27:18;;;;;;;9.48;4.43;;;20.80;99.90;;;;;;4992008;28;20029;-62
2023/08/25 02:29:44;;;;;;;8.32;4.88;;;20.80;99.90;;;;;;4990339;28;20042;-61
2023/08/25 02:32:10;;;;;;;6.32;4.30;;;20.80;99.90;;;;;;4990267;28;20050;-62
2023/08/25 02:34:35;;;;;;;8.43;4.57;;;20.80;99.90;;;;;;4986393;28;20042;-61
2023/08/25 02:37:01;;;;;;;6.68;4.03;;;20.80;99.90;;;;;;4988517;28;20030;-61
2023/08/25 02:39:27;;;;;;;8.23;4.07;;;20.80;99.90;;;;;;4990354;28;20038;-62
2023/08/25 02:41:53;;;;;;;5.43;3.63;;;20.70;99.90;;;;;;4990484;28;20503;-62
2023/08/25 02:44:18;;;;;;;6.53;3.97;;;20.70;99.90;;;;;;4988137;28;20030;-61
2023/08/25 02:46:44;;;;;;;9.10;4.30;;;20.70;99.90;;;;;;4987498;28;20038;-61
2023/08/25 02:49:10;;;;;;;8.90;4.57;;;20.70;99.90;;;;;;4989256;28;20038;-62
2023/08/25 02:51:36;;;;;;;5.68;3.67;;;20.60;99.90;;;;;;4974418;28;20422;-62
2023/08/25 02:54:02;;;;;;;9.82;4.60;;;20.60;99.90;;;;;;4988975;28;20035;-62
2023/08/25 02:56:28;;;;;;;549.38;317.45;;;20.60;99.90;;;;;;4985238;28;20037;-61
2023/08/25 02:58:54;;;;;;;567.05;357.23;;;20.50;99.90;;;;;;4989004;28;20023;-62
2023/08/25 03:01:20;;;;;;;579.97;378.13;;;20.50;99.90;;;;;;4984102;28;20030;-61
2023/08/25 03:03:47;;;;;;;565.25;355.27;;;20.50;99.90;;;;;;4991218;28;20046;-62
2023/08/25 03:06:13;;;;;;;553.00;312.88;;;20.40;99.90;;;;;;4989402;28;20030;-61
2023/08/25 03:08:39;;;;;;;560.45;333.63;;;20.40;99.90;;;;;;4991303;28;20105;-62
2023/08/25 03:11:05;;;;;;;469.35;178.27;;;20.40;99.90;;;;;;4989129;28;20502;-61
2023/08/25 03:13:31;;;;;;;515.38;230.27;;;20.40;99.90;;;;;;4989639;28;20038;-61
2023/08/25 03:15:59;;;;;;;573.42;350.05;;;20.30;99.90;;;;;;4993037;28;20031;-61
2023/08/25 03:18:25;;;;;;;537.15;262.17;;;20.30;99.90;;;;;;4991118;28;20092;-61
2023/08/25 03:20:52;;;;;;;560.90;324.08;;;20.30;99.90;;;;;;4989129;28;20664;-61
2023/08/25 03:23:18;;;;;;;536.20;266.90;;;20.30;99.90;;;;;;4985649;28;20122;-61
2023/08/25 03:25:44;;;;;;;568.00;332.98;;;20.30;99.90;;;;;;4989217;28;20062;-61
2023/08/25 03:28:10;;;;;;;556.22;313.48;;;20.30;99.90;;;;;;4990965;28;20041;-61
2023/08/25 03:30:37;;;;;;;515.47;226.30;;;20.20;99.90;;;;;;4983023;28;20038;-62
2023/08/25 03:33:06;;;;;;;531.75;257.75;;;20.20;99.90;;;;;;4990382;28;20078;-61
2023/08/25 03:35:38;;;;;;;561.20;322.17;;;20.20;99.90;;;;;;4983053;28;20041;-61
2023/08/25 03:38:05;;;;;;;497.77;201.93;;;20.20;99.90;;;;;;4989491;28;20026;-62
2023/08/25 03:40:31;;;;;;;546.50;297.17;;;20.10;99.90;;;;;;4989254;28;20034;-61
2023/08/25 03:42:57;;;;;;;6.22;3.65;;;20.10;99.90;;;;;;4990264;28;20037;-61
2023/08/25 03:45:23;;;;;;;476.48;189.70;;;20.10;99.90;;;;;;4982814;28;20068;-61
2023/08/25 03:47:49;;;;;;;437.65;152.68;;;20.10;99.90;;;;;;4990822;28;20062;-61
2023/08/25 03:50:14;;;;;;;511.90;229.82;;;20.10;99.90;;;;;;4982564;28;20033;-62
2023/08/25 03:52:40;;;;;;;523.65;246.45;;;20.10;99.90;;;;;;4990416;28;20066;-61
2023/08/25 03:55:06;;;;;;;543.72;287.52;;;20.00;99.90;;;;;;4982793;28;20037;-61
2023/08/25 03:57:32;;;;;;;523.25;234.18;;;20.00;99.90;;;;;;4989503;28;20038;-61
2023/08/25 03:59:58;;;;;;;249.85;137.40;;;20.00;99.90;;;;;;4982583;28;20173;-62
2023/08/25 04:02:23;;;;;;;7.38;3.30;;;20.00;99.90;;;;;;4990714;28;20391;-62
2023/08/25 04:04:49;;;;;;;7.75;4.13;;;20.00;99.90;;;;;;4988466;28;20022;-61
2023/08/25 04:07:15;;;;;;;538.90;273.65;;;20.00;99.90;;;;;;4990653;28;20040;-62
2023/08/25 04:09:41;;;;;;;551.05;300.02;;;20.00;99.90;;;;;;4985063;28;20041;-61
2023/08/25 04:12:07;;;;;;;535.22;262.63;;;20.10;99.90;;;;;;4992727;28;20106;-62
2023/08/25 04:14:34;;;;;;;540.38;275.60;;;20.10;99.90;;;;;;4994601;28;20062;-61
2023/08/25 04:16:59;;;;;;;545.83;285.80;;;20.10;99.90;;;;;;4996651;28;20037;-61
2023/08/25 04:19:25;;;;;;;542.47;290.13;;;20.10;99.90;;;;;;4989901;28;20038;-62
2023/08/25 04:21:51;;;;;;;527.45;258.20;;;20.20;99.90;;;;;;4990684;28;20092;-61
2023/08/25 04:24:17;;;;;;;514.35;237.18;;;20.20;99.90;;;;;;4990690;28;20030;-62
2023/08/25 04:26:43;;;;;;;471.38;178.02;;;20.30;99.90;;;;;;4988634;28;20080;-61
2023/08/25 04:29:09;;;;;;;492.73;195.20;;;20.30;99.90;;;;;;4980231;28;20026;-61
2023/08/25 04:31:36;;;;;;;336.30;134.70;;;20.40;99.90;;;;;;4983922;28;20064;-62
2023/08/25 04:34:03;;;;;;;540.10;286.17;;;20.30;99.90;;;;;;4982274;28;20693;-62
2023/08/25 04:36:28;;;;;;;541.00;269.88;;;20.30;99.90;;;;;;4990011;28;20035;-62
2023/08/25 04:38:54;;;;;;;537.55;278.73;;;20.40;99.90;;;;;;4962577;28;20060;-62
2023/08/25 04:41:20;;;;;;;540.03;288.25;;;20.50;99.90;;;;;;4994010;28;20062;-61
2023/08/25 04:43:47;;;;;;;495.35;201.75;;;20.50;99.90;;;;;;4990299;28;20038;-60
2023/08/25 04:46:13;;;;;;;563.90;288.05;;;20.50;99.90;;;;;;4982621;28;20052;-61
2023/08/25 04:48:43;;;;;;;544.35;291.67;;;20.50;99.90;;;;;;4992938;28;20027;-64
2023/08/25 04:51:08;;;;;;;536.03;266.60;;;20.40;99.90;;;;;;4985157;28;20057;-64
2023/08/25 04:53:34;;;;;;;534.55;267.50;;;20.40;99.90;;;;;;4993268;28;20023;-63
2023/08/25 04:56:00;;;;;;;543.58;286.92;;;20.30;99.90;;;;;;4985426;28;20109;-60
2023/08/25 04:58:26;;;;;;;538.47;266.55;;;20.20;99.90;;;;;;4992107;28;20117;-66
2023/08/25 05:00:53;;;;;;;533.13;270.08;;;20.20;99.90;;;;;;4989845;28;20434;-69
2023/08/25 05:03:18;;;;;;;471.40;164.23;;;20.10;99.90;;;;;;4984974;28;20031;-67
2023/08/25 05:05:44;;;;;;;536.08;264.73;;;20.20;99.90;;;;;;4991904;28;20034;-66
2023/08/25 05:08:10;;;;;;;532.80;251.65;;;20.30;99.90;;;;;;4993184;28;20038;-54
2023/08/25 05:10:36;;;;;;;544.60;281.83;;;20.30;99.90;;;;;;4991523;28;20450;-58
2023/08/25 05:13:03;;;;;;;531.60;254.43;;;20.50;99.90;;;;;;4992913;28;20089;-57
2023/08/25 05:15:29;;;;;;;7.20;3.55;;;20.40;99.90;;;;;;4995423;28;20156;-57
2023/08/25 05:17:55;;;;;;;545.33;285.88;;;20.30;99.90;;;;;;4993009;28;20589;-54
2023/08/25 05:20:21;;;;;;;12.38;3.10;;;20.30;99.90;;;;;;4984937;28;20046;-56
2023/08/25 05:22:48;;;;;;;552.17;300.98;;;20.20;99.90;;;;;;4990417;28;20631;-56
2023/08/25 05:25:14;;;;;;;554.50;304.40;;;20.20;99.90;;;;;;4990937;28;20022;-56
2023/08/25 05:27:40;;;;;;;463.10;159.35;;;20.30;99.90;;;;;;4992852;28;20038;-57
2023/08/25 05:30:07;;;;;;;527.20;249.00;;;20.30;99.90;;;;;;4967898;28;20054;-56
2023/08/25 05:32:32;;;;;;;517.25;222.32;;;20.30;99.90;;;;;;4991309;28;20391;-56
2023/08/25 05:34:58;;;;;;;516.95;228.10;;;20.30;99.90;;;;;;4990674;28;20042;-55
2023/08/25 05:37:24;;;;;;;542.33;279.67;;;20.30;99.90;;;;;;4991514;28;20041;-52
2023/08/25 05:39:50;;;;;;;541.67;275.65;;;20.40;99.90;;;;;;4985004;28;20045;-58
2023/08/25 05:42:16;;;;;;;506.65;211.38;;;20.40;99.90;;;;;;4991901;28;20026;-58
2023/08/25 05:44:42;;;;;;;563.40;318.35;;;20.40;99.90;;;;;;4981934;28;20027;-55
2023/08/25 05:47:08;;;;;;;552.20;298.55;;;20.40;99.90;;;;;;4982893;28;20029;-53
2023/08/25 05:49:33;;;;;;;547.80;295.95;;;20.40;99.90;;;;;;4979063;28;20046;-55
2023/08/25 05:51:59;;;;;;;556.63;288.85;;;20.40;99.90;;;;;;4981678;28;20105;-50
2023/08/25 05:54:25;;;;;;;551.70;297.70;;;20.30;99.90;;;;;;4981247;28;20076;-53
2023/08/25 05:56:53;;;;;;;7.35;3.55;;;20.30;99.90;;;;;;4979968;28;20053;-56
2023/08/25 05:59:19;;;;;;;548.85;299.95;;;20.30;99.90;;;;;;4982115;28;20035;-56
2023/08/25 06:01:45;;;;;;;531.97;273.48;;;20.30;99.90;;;;;;4986477;28;20034;-57
2023/08/25 06:04:11;;;;;;;443.67;152.32;;;20.20;99.90;;;;;;4990265;28;20045;-52
2023/08/25 06:06:38;;;;;;;500.90;213.73;;;20.20;99.90;;;;;;4992222;28;20030;-56
2023/08/25 06:09:05;;;;;;;536.97;270.05;;;20.10;99.90;;;;;;4990365;28;20128;-55
2023/08/25 06:11:31;;;;;;;535.38;268.08;;;20.10;99.90;;;;;;4987323;28;20085;-61
2023/08/25 06:13:56;;;;;;;518.42;246.63;;;20.00;99.90;;;;;;4990741;28;20035;-63
2023/08/25 06:16:23;;;;;;;482.35;184.48;;;19.90;99.90;;;;;;4984555;28;20125;-63
2023/08/25 06:18:48;;;;;;;501.25;200.48;;;19.80;99.90;;;;;;4983506;28;20050;-63
2023/08/25 06:21:14;;;;;;;562.92;289.63;;;19.80;99.90;;;;;;4977729;28;20037;-63
2023/08/25 06:23:40;;;;;;;572.13;310.48;;;19.80;99.90;;;;;;4984663;28;20038;-63
2023/08/25 06:26:06;;;;;;;574.10;314.20;;;19.80;99.90;;;;;;4990250;28;20178;-64
2023/08/25 06:28:33;;;;;;;510.45;194.57;;;19.80;99.90;;;;;;4989723;28;20153;-64
2023/08/25 06:30:59;;;;;;;580.33;333.65;;;19.70;99.90;;;;;;4988952;28;20041;-63
2023/08/25 06:33:29;;;;;;;352.80;141.43;;;19.70;99.90;;;;;;4988642;28;20034;-63
2023/08/25 06:35:56;;;;;;;580.90;330.55;;;19.70;99.90;;;;;;4991211;28;20053;-63
2023/08/25 06:38:23;;;;;;;586.70;337.42;;;19.70;99.90;;;;;;4986174;28;20038;-63
2023/08/25 06:40:50;;;;;;;552.72;262.10;;;19.80;99.90;;;;;;4985810;28;20054;-63
2023/08/25 06:43:16;;;;;;;516.47;210.95;;;19.80;99.90;;;;;;4988733;28;20029;-64
2023/08/25 06:45:42;;;;;;;541.35;247.95;;;19.90;99.90;;;;;;4985766;28;20026;-64
2023/08/25 06:48:08;;;;;;;574.50;304.48;;;19.90;99.90;;;;;;4988933;28;20018;-64
2023/08/25 06:50:34;;;;;;;558.08;274.67;;;19.90;99.90;;;;;;4990140;28;20080;-64
2023/08/25 06:52:59;;;;;;;572.47;311.80;;;19.90;99.90;;;;;;4987829;28;20836;-64
2023/08/25 06:55:25;;;;;;;578.55;330.30;;;20.00;99.90;;;;;;4991016;28;20402;-64
2023/08/25 06:57:51;;;;;;;578.33;326.10;;;20.00;99.90;;;;;;4989611;28;20026;-64
2023/08/25 07:00:17;;;;;;;7.20;2.33;;;20.10;99.90;;;;;;4990498;28;20049;-64
2023/08/25 07:02:44;;;;;;;526.17;221.68;;;20.10;99.90;;;;;;4990482;28;20034;-65
2023/08/25 07:05:12;;;;;;;7.78;3.00;;;20.10;99.90;;;;;;4981518;28;20030;-65
2023/08/25 07:07:38;;;;;;;5.72;2.65;;;20.00;99.90;;;;;;4987333;28;20072;-65
2023/08/25 07:10:05;;;;;;;581.33;333.85;;;20.00;99.90;;;;;;4984588;28;20049;-65
2023/08/25 07:12:32;;;;;;;570.05;311.77;;;20.00;99.90;;;;;;4983053;28;20038;-65
2023/08/25 07:14:57;;;;;;;531.83;230.45;;;20.10;99.90;;;;;;4988320;28;20065;-65
2023/08/25 07:17:23;;;;;;;592.35;369.30;;;20.10;99.90;;;;;;4990524;28;20057;-65
2023/08/25 07:19:49;;;;;;;578.97;329.35;;;20.20;99.90;;;;;;4989139;28;20164;-65
2023/08/25 07:22:15;;;;;;;290.58;192.25;;;20.10;99.90;;;;;;4990759;28;20031;-66
2023/08/25 07:24:40;;;;;;;591.35;371.60;;;20.10;99.90;;;;;;4988506;28;20038;-65
2023/08/25 07:27:06;;;;;;;2.83;1.98;;;20.00;99.90;;;;;;4983171;28;20502;-60
2023/08/25 07:29:36;;;;;;;556.65;285.17;;;20.00;99.90;;;;;;4989389;28;20038;-60
2023/08/25 07:32:03;;;;;;;549.00;270.15;;;20.00;99.90;;;;;;4990585;28;20121;-60
2023/08/25 07:34:29;;;;;;;561.72;298.02;;;20.00;99.90;;;;;;4988745;28;20034;-60
2023/08/25 07:36:55;;;;;;;573.45;320.23;;;20.00;99.90;;;;;;4990479;28;20037;-59
2023/08/25 07:39:21;;;;;;;587.78;355.05;;;20.10;99.90;;;;;;4988621;28;20047;-60
2023/08/25 07:41:47;;;;;;;4.85;2.15;;;20.10;99.90;;;;;;4984716;28;20038;-60
2023/08/25 07:44:13;;;;;;;5.15;2.28;;;20.10;99.90;;;;;;4988271;28;20418;-60
2023/08/25 07:46:39;;;;;;;6.82;2.78;;;20.20;99.90;;;;;;4993875;28;20403;-60
2023/08/25 07:49:07;;;;;;;8.13;3.10;;;20.40;99.90;;;;;;4990264;28;20035;-63
2023/08/25 07:51:35;;;;;;;6.00;2.83;;;20.50;99.90;;;;;;4991797;28;20050;-60
2023/08/25 07:54:01;;;;;;;3.75;2.25;;;20.60;99.90;;;;;;4992065;28;20030;-60
2023/08/25 07:56:27;;;;;;;4.65;2.40;;;20.70;99.90;;;;;;4992861;28;20478;-60
2023/08/25 07:58:53;;;;;;;489.85;215.20;;;20.80;99.90;;;;;;4992172;28;20045;-59
2023/08/25 08:01:19;;;;;;;565.70;336.25;;;20.90;99.90;;;;;;4992594;28;20062;-60
2023/08/25 08:03:45;;;;;;;511.70;232.45;;;21.00;99.90;;;;;;4992562;28;20088;-60
2023/08/25 08:06:11;;;;;;;585.45;372.90;;;21.00;99.90;;;;;;4993901;28;20026;-60
2023/08/25 08:08:37;;;;;;;535.15;257.95;;;21.10;99.90;;;;;;4992260;28;20049;-59
2023/08/25 08:11:03;;;;;;;569.67;343.08;;;21.10;99.90;;;;;;4993884;28;20037;-59
2023/08/25 08:13:29;;;;;;;571.97;349.58;;;21.10;99.90;;;;;;4991890;28;20049;-59
2023/08/25 08:15:56;;;;;;;567.03;338.98;;;21.20;99.90;;;;;;4988598;28;20509;-59
2023/08/25 08:18:22;;;;;;;580.55;372.08;;;21.30;99.90;;;;;;4989032;28;20030;-59
2023/08/25 08:20:48;;;;;;;597.50;418.00;;;21.30;99.90;;;;;;4991143;28;20053;-59
2023/08/25 08:23:15;;;;;;;615.88;450.50;;;21.30;99.90;;;;;;4991602;28;20280;-58
2023/08/25 08:25:41;;;;;;;588.25;379.70;;;21.20;99.90;;;;;;4991944;28;20390;-58
2023/08/25 08:28:08;;;;;;;617.20;454.33;;;21.20;99.90;;;;;;4990941;28;20053;-59
2023/08/25 08:30:35;;;;;;;591.50;375.38;;;21.10;99.90;;;;;;4993227;28;20149;-59
2023/08/25 08:33:01;;;;;;;619.95;456.08;;;21.10;99.90;;;;;;4991997;28;20022;-59
2023/08/25 08:35:26;;;;;;;589.38;379.85;;;21.10;99.90;;;;;;4992306;28;20034;-58
2023/08/25 08:37:52;;;;;;;615.83;447.45;;;21.10;99.90;;;;;;4989261;28;20042;-59
2023/08/25 08:40:20;;;;;;;614.25;431.10;;;21.00;99.90;;;;;;4993039;28;20064;-58
2023/08/25 08:42:47;;;;;;;597.42;355.80;;;21.00;99.90;;;;;;4991074;28;20093;-58
2023/08/25 08:45:17;;;;;;;600.47;407.60;;;21.00;99.90;;;;;;5007432;28;20037;-59
2023/08/25 08:47:44;;;;;;;542.38;275.80;;;21.00;99.90;;;;;;4991996;28;20027;-59
2023/08/25 08:50:10;;;;;;;561.38;310.85;;;21.10;99.90;;;;;;4989701;28;20126;-59
2023/08/25 08:52:36;;;;;;;560.40;305.50;;;21.40;99.90;;;;;;4992380;28;20026;-59
2023/08/25 08:55:07;;;;;;;564.15;315.38;;;21.60;99.90;;;;;;4991424;28;20034;-59
2023/08/25 08:57:33;;;;;;;590.53;385.77;;;21.70;99.90;;;;;;4993350;28;20037;-59
2023/08/25 08:59:59;;;;;;;596.67;413.73;;;21.80;99.90;;;;;;4991252;28;20042;-58
2023/08/25 09:02:28;;;;;;;605.95;429.52;;;21.90;99.90;;;;;;4990754;28;20026;-59
2023/08/25 09:04:58;;;;;;;604.20;441.55;;;21.90;99.90;;;;;;4987731;28;20041;-59
2023/08/25 09:07:28;;;;;;;607.97;433.52;;;21.90;99.90;;;;;;4980981;28;20491;-58
2023/08/25 09:09:56;;;;;;;616.85;451.27;;;22.10;99.90;;;;;;5004187;28;20552;-58
2023/08/25 09:12:21;;;;;;;613.28;452.52;;;22.10;99.90;;;;;;4989950;28;20137;-59
2023/08/25 09:14:47;;;;;;;607.75;459.30;;;22.30;99.90;;;;;;4996221;23;20035;-63
2023/08/25 09:17:14;;;;;;;613.40;465.75;;;22.40;99.90;;;;;;4988347;28;20041;-63
2023/08/25 09:19:41;;;;;;;609.30;465.10;;;22.50;99.90;;;;;;4990129;28;20034;-63
2023/08/25 09:22:11;;;;;;;612.60;472.85;;;22.60;99.90;;;;;;4989876;28;20471;-63
2023/08/25 09:24:38;;;;;;;614.45;479.50;;;22.60;99.90;;;;;;4984821;28;20038;-83
2023/08/25 09:27:05;;;;;;;616.30;462.13;;;22.70;99.90;;;;;;4966496;28;20031;-78
2023/08/25 09:29:41;;;;;;;617.28;490.83;;;22.90;99.90;;;;;;4956956;28;20039;-79
2023/08/25 09:32:16;;;;;;;622.85;504.23;;;22.90;99.90;;;;;;4969130;28;20114;-80
2023/08/25 09:34:42;;;;;;;625.20;514.90;;;23.10;99.90;;;;;;4952261;28;20101;-81
2023/08/25 09:37:08;;;;;;;629.40;528.13;;;23.30;99.90;;;;;;4970501;28;20409;-79
2023/08/25 09:39:45;;;;;;;630.55;538.92;;;23.50;99.90;;;;;;4974873;28;20077;-80
2023/08/25 09:42:11;;;;;;;627.78;530.42;;;23.60;99.90;;;;;;4967669;28;20487;-80
2023/08/25 09:44:38;;;;;;;624.67;527.85;;;23.70;99.90;;;;;;4979434;28;20030;-79
2023/08/25 09:47:06;;;;;;;630.05;548.13;;;23.70;99.90;;;;;;4978126;28;20039;-78
2023/08/25 09:49:40;;;;;;;626.17;540.97;;;23.70;99.90;;;;;;4966341;28;20023;-78
2023/08/25 09:52:07;;;;;;;627.83;540.80;;;23.70;99.90;;;;;;4981372;28;20391;-78
2023/08/25 09:54:36;;;;;;;630.13;545.90;;;23.80;99.90;;;;;;4986270;28;20026;-78
2023/08/25 09:57:02;;;;;;;628.42;541.67;;;23.60;99.90;;;;;;4983163;28;20022;-78
2023/08/25 09:59:28;;;;;;;632.28;551.75;;;23.70;99.90;;;;;;4986608;28;20046;-79
2023/08/25 10:01:57;;;;;;;630.10;552.03;;;23.60;99.90;;;;;;4982506;28;20058;-77
2023/08/25 10:04:23;;;;;;;632.55;553.58;;;23.60;99.90;;;;;;4986652;28;20034;-79
2023/08/25 10:06:49;;;;;;;632.13;552.88;;;23.50;99.90;;;;;;4982214;28;20041;-79
2023/08/25 10:09:18;;;;;;;637.28;563.00;;;23.60;99.90;;;;;;4977661;28;20132;-77
2023/08/25 10:11:48;;;;;;;633.30;559.17;;;23.70;99.90;;;;;;4982294;28;20121;-77
2023/08/25 10:14:14;;;;;;;632.67;555.03;;;23.60;99.90;;;;;;4982570;28;20030;-73
2023/08/25 10:16:51;;;;;;;631.92;555.67;;;23.70;99.90;;;;;;4977887;28;20031;-76
2023/08/25 10:19:23;;;;;;;628.15;549.22;;;23.50;99.90;;;;;;4958126;28;20460;-76
2023/08/25 10:21:52;;;;;;;631.28;555.47;;;23.60;99.90;;;;;;4982148;28;20032;-76
2023/08/25 10:24:25;;;;;;;628.97;546.85;;;23.60;99.90;;;;;;4969460;28;20698;-77
2023/08/25 10:26:53;;;;;;;637.38;559.67;;;23.70;99.90;;;;;;4980534;28;20137;-77
2023/08/25 10:29:24;;;;;;;627.45;544.40;;;23.60;99.90;;;;;;4985427;28;20113;-76
2023/08/25 10:31:58;;;;;;;625.67;542.08;;;23.60;99.90;;;;;;4981751;28;20093;-76
2023/08/25 10:34:43;;;;;;;625.80;538.67;;;23.70;99.90;;;;;;4985111;28;20026;-77
2023/08/25 10:37:10;;;;;;;627.97;539.30;;;23.60;99.90;;;;;;4982763;28;20037;-77
2023/08/25 10:39:52;;;;;;;625.75;536.38;;;23.60;99.90;;;;;;4973560;28;20398;-76
2023/08/25 10:42:38;;;;;;;631.90;540.67;;;23.60;99.90;;;;;;4958438;28;20035;-76
2023/08/25 10:45:11;;;;;;;633.88;554.08;;;23.60;99.90;;;;;;4976041;28;20034;-76
2023/08/25 10:47:46;;;;;;;633.95;549.38;;;23.60;99.90;;;;;;4986292;28;20030;-76
2023/08/25 10:50:19;;;;;;;632.08;548.60;;;23.60;99.90;;;;;;4978027;28;20038;-75
2023/08/25 10:52:50;;;;;;;630.90;549.58;;;23.60;99.90;;;;;;4985396;28;20038;-76
2023/08/25 10:55:29;;;;;;;639.58;549.40;;;23.50;99.90;;;;;;4978039;28;20125;-75
2023/08/25 10:58:06;;;;;;;630.30;543.03;;;23.60;99.90;;;;;;4986225;28;20498;-76
2023/08/25 11:00:36;;;;;;;632.67;545.72;;;23.60;99.90;;;;;;4978544;28;20073;-75
2023/08/25 11:03:03;;;;;;;632.43;546.83;;;23.80;99.90;;;;;;4971469;28;20384;-75
2023/08/25 11:05:29;;;;;;;631.72;550.45;;;23.90;99.90;;;;;;4966889;28;20095;-75
2023/08/25 11:08:05;;;;;;;634.17;562.05;;;23.90;99.90;;;;;;4976699;28;20042;-75
2023/08/25 11:10:34;;;;;;;636.58;565.08;;;24.00;99.90;;;;;;4981423;28;20027;-75
2023/08/25 11:13:07;;;;;;;650.05;578.55;;;24.20;99.90;;;;;;4977660;28;20034;-75
2023/08/25 11:15:36;;;;;;;653.72;582.55;;;24.20;99.90;;;;;;4968473;28;20503;-75
2023/08/25 11:18:02;;;;;;;651.65;580.65;;;24.50;99.90;;;;;;4979601;28;20434;-75
2023/08/25 11:20:29;;;;;;;658.03;586.90;;;24.60;99.90;;;;;;4983815;28;20125;-75
2023/08/25 11:23:00;;;;;;;670.70;598.97;;;24.70;99.90;;;;;;4961966;28;20041;-75
2023/08/25 11:25:27;;;;;;;681.22;609.13;;;24.90;99.90;;;;;;4982404;28;20074;-75
2023/08/25 11:27:54;;;;;;;689.70;617.58;;;25.10;99.90;;;;;;4975108;28;20558;-75
2023/08/25 11:30:21;;;;;;;696.25;623.67;;;25.10;99.90;;;;;;4982525;28;20046;-75
2023/08/25 11:32:48;;;;;;;706.85;634.03;;;25.40;99.90;;;;;;4974731;28;20054;-76
2023/08/25 11:35:14;;;;;;;711.67;638.58;;;25.40;99.90;;;;;;4983913;28;20117;-75
2023/08/25 11:37:44;;;;;;;728.72;655.13;;;25.50;99.90;;;;;;4972892;28;20498;-75
2023/08/25 11:40:19;;;;;;;732.63;658.75;;;25.80;99.90;;;;;;4968355;28;20495;-76
2023/08/25 11:42:46;;;;;;;745.70;671.35;;;25.70;99.90;;;;;;4973072;28;20027;-75
2023/08/25 11:45:13;;;;;;;742.65;668.50;;;25.90;99.90;;;;;;4983994;28;20026;-75
2023/08/25 11:47:39;;;;;;;743.05;669.10;;;25.90;99.90;;;;;;4972846;28;20471;-75
2023/08/25 11:50:06;;;;;;;739.53;665.38;;;25.60;99.90;;;;;;4984483;28;20109;-75
2023/08/25 11:52:33;;;;;;;738.15;664.25;;;25.50;99.90;;;;;;4971738;28;20110;-76
2023/08/25 11:54:59;;;;;;;736.63;662.58;;;25.30;99.90;;;;;;4985649;28;20026;-75
2023/08/25 11:57:36;;;;;;;733.00;659.38;;;25.60;99.90;;;;;;4972884;28;20039;-75
2023/08/25 12:00:07;;;;;;;746.10;671.97;;;25.50;99.90;;;;;;4987199;28;20498;-75
2023/08/25 12:02:34;;;;;;;736.28;662.05;;;25.30;99.90;;;;;;4977170;28;20510;-76
2023/08/25 12:05:03;;;;;;;726.75;653.22;;;25.10;99.90;;;;;;4974990;28;20023;-76
2023/08/25 12:07:32;;;;;;;714.22;641.25;;;25.10;99.90;;;;;;4978538;28;20498;-76
2023/08/25 12:10:00;;;;;;;707.30;634.53;;;25.00;99.90;;;;;;4986463;28;20462;-76
2023/08/25 12:12:30;;;;;;;709.97;636.75;;;24.90;99.90;;;;;;4977894;28;20458;-76
2023/08/25 12:14:56;;;;;;;;;;;24.80;99.90;;;;;;4987416;28;20065;-75
2023/08/25 12:17:28;;;;;;;688.42;616.03;;;24.80;99.90;;;;;;4976090;28;20345;-75
2023/08/25 12:19:55;;;;;;;696.03;623.63;;;24.90;99.90;;;;;;4976675;28;20511;-75